Nissho Maru — JD2650 — position and weather

sailwx.info

Track history (hours):
 
Tides and Currents Weather Stations Pressure Air Temp Water Temp Dewpoint Dewpoint Depression Visibility Wind Speed Wind Dir Waves Ship Positions

Nissho Maru

Last reported at 2017-Mar-23 18:26 UTC. Time now 2017-Mar-24 18:11 UTC.
Position N 34°06' E 132°39'.

Length 75 m.

Type: Cargo ship. MMSI: 431000572.

Date/timePositionNaut miles runAvg speedWind from/ knotsBaromVisibWave heightAir tempDewpointWater temp
2017-Mar-23 18:26N 34°06' E 132°39'910.6
2017-Mar-23 17:33N 33°57' E 132°42'1211.5
2017-Mar-23 16:31N 33°49' E 132°32'18 0.5
2017-Mar-22 03:31N 33°37' E 132°16'1213.0
2017-Mar-22 02:34N 33°45' E 132°28'1312.9
2017-Mar-22 01:33N 33°52' E 132°41'1 1.3
2017-Mar-22 00:33N 33°52' E 132°42'0 0.0
2017-Mar-21 23:24N 33°52' E 132°42'2 2.1
2017-Mar-21 22:33N 33°51' E 132°40'0 0.3
2017-Mar-21 21:27N 33°51' E 132°40'0 0.0
2017-Mar-21 20:27N 33°51' E 132°40'0 0.0
2017-Mar-21 19:33N 33°51' E 132°40'0 0.1
2017-Mar-21 18:33N 33°51' E 132°40'0 0.0
2017-Mar-21 17:27N 33°51' E 132°40'0 0.1
2017-Mar-21 16:33N 33°51' E 132°40'0 0.0
2017-Mar-21 15:27N 33°51' E 132°40'0 0.0
2017-Mar-21 14:33N 33°51' E 132°40'15 0.5
2017-Mar-20 10:30N 33°46' E 132°23'1212.4
2017-Mar-20 09:33N 33°52' E 132°35'  
Track history (hours):
 
Tides and Currents Weather Stations Pressure Air Temp Water Temp Dewpoint Dewpoint Depression Visibility Wind Speed Wind Dir Waves Ship Positions

Nissho Maru

Last reported at 2017-Mar-23 18:26 UTC. Time now 2017-Mar-24 18:11 UTC.
Position N 34°06' E 132°39'.

Length 75 m.

Type: Cargo ship. MMSI: 431000572.

Date/timePositionNaut miles runAvg speedWind from/ knotsBaromVisibWave heightAir tempDewpointWater temp
2017-Mar-23 18:26N 34°06' E 132°39'910.6
2017-Mar-23 17:33N 33°57' E 132°42'1211.5
2017-Mar-23 16:31N 33°49' E 132°32'18 0.5
2017-Mar-22 03:31N 33°37' E 132°16'1213.0
2017-Mar-22 02:34N 33°45' E 132°28'1312.9
2017-Mar-22 01:33N 33°52' E 132°41'1 1.3
2017-Mar-22 00:33N 33°52' E 132°42'0 0.0
2017-Mar-21 23:24N 33°52' E 132°42'2 2.1
2017-Mar-21 22:33N 33°51' E 132°40'0 0.3
2017-Mar-21 21:27N 33°51' E 132°40'0 0.0
2017-Mar-21 20:27N 33°51' E 132°40'0 0.0
2017-Mar-21 19:33N 33°51' E 132°40'0 0.1
2017-Mar-21 18:33N 33°51' E 132°40'0 0.0
2017-Mar-21 17:27N 33°51' E 132°40'0 0.1
2017-Mar-21 16:33N 33°51' E 132°40'0 0.0
2017-Mar-21 15:27N 33°51' E 132°40'0 0.0
2017-Mar-21 14:33N 33°51' E 132°40'15 0.5
2017-Mar-20 10:30N 33°46' E 132°23'1212.4
2017-Mar-20 09:33N 33°52' E 132°35'  

Dump ship's entire track history